Portada
METAR-TAF:

METAR-TAF

Aeropuertos :

Yakutsk, Rusia

Aeropuerto de Yakutsk

latitud: 62-01N, longitud: 129-43E, altitud: 103 m

Observación

El informe se hizo hace 32 minutos, a las 01:00 UTC
Viento 4 kt del sur-suroeste
Temperatura -40°C
Humedad 65%
Presión 1031 hPa
Visibilidad: 2400 m
poca nieve, neblina

METAR: UEEE 240100Z 20002MPS 2400 -SN BR NSC M40/M44 Q1031 R23L/490150 NOSIG RMK QFE764

Hora: 10:32 (01:32 UTC)

Pronóstico

El informe se hizo hace 1 hora y 10 minutos, a las 00:22 UTC
Pronóstico válido del 24 a las 00 UTC al 25 a las 06 UTC
Viento 6 kt del sur-suroeste
Visibilidad: 1000 m
Cielo cubierto a una altura de 7000 ft
poca nieve, neblina
Temporalmente
del 24 a las 00 UTC al 24 a las 03 UTC
Visibilidad: 0400 m
a una altura de 400 ft
niebla

TAF: UEEE 240022Z 2400/2506 20003MPS 1000 -SN BR OVC070 TEMPO 2400/2403 0400 FG VV004

Observaciones y pronósticos meteorológicos de más de 4000 aeropuertos (mensajes METAR y TAF).

Los puntos amarillos y rojos representan las estaciones disponibles.

Ponga el ratón en el punto deseado para ver el nombre de la estación.

Haga clic para ver las observaciones y los pronósticos meteorológicos.

Para cambiar el mapa : haga clic en los botones verdes con una cruz de color negro para hacer un zoom, en el botón verde con un guión para alejar o en las flechas verdes para mapas adyacentes.


METAR-TAF: